Time;durP1;ratioP1;P1;durP2;ratioP2;P2;SDS_P1;SDS_P2;PMS_P1;PMS_P2;Temp;Humidity;BMP_temperature;BMP_pressure;BME280_temperature;BME280_humidity;BME280_pressure;Samples;Min_cycle;Max_cycle;Signal;HPM_P1;HPM_P2
2023/10/14 00:01:07;;;;;;;;;;;;;;;21.77;34.59;97746.09;5026908;28;20076;-78
2023/10/14 00:03:33;;;;;;;0.10;0.10;;;;;;;21.81;34.78;97746.00;5026181;28;20000;-78
2023/10/14 00:06:00;;;;;;;0.10;0.10;;;;;;;21.75;34.61;97744.34;5027061;28;20044;-78
2023/10/14 00:08:31;;;;;;;0.10;0.10;;;;;;;21.68;35.08;97742.78;5025333;28;20068;-78
2023/10/14 00:11:00;;;;;;;0.10;0.10;;;;;;;21.71;35.26;97740.84;5029253;28;20048;-78
2023/10/14 00:13:30;;;;;;;0.10;0.10;;;;;;;21.60;35.32;97732.13;5025710;28;20037;-79
2023/10/14 00:15:56;;;;;;;0.10;0.10;;;;;;;21.43;36.45;97745.34;5025343;28;20535;-79
2023/10/14 00:18:21;;;;;;;0.10;0.10;;;;;;;21.54;36.11;97732.34;5026290;28;20048;-78
2023/10/14 00:20:47;;;;;;;0.10;0.10;;;;;;;21.58;36.72;97734.03;5032605;28;20037;-78
2023/10/14 00:23:12;;;;;;;0.10;0.10;;;;;;;21.78;36.57;97738.81;5024457;28;20041;-79
2023/10/14 00:25:38;;;;;;;0.10;0.10;;;;;;;21.85;36.42;97748.56;5026587;28;20031;-78
2023/10/14 00:28:13;;;;;;;0.10;0.10;;;;;;;21.95;36.52;97735.59;5024257;28;20033;-78
2023/10/14 00:30:39;;;;;;;0.10;0.10;;;;;;;21.81;37.15;97736.03;5028882;28;20037;-78
2023/10/14 00:33:04;;;;;;;0.15;0.15;;;;;;;21.80;37.50;97730.63;5024226;28;20033;-79
2023/10/14 00:35:30;;;;;;;0.10;0.10;;;;;;;21.76;38.07;97733.44;5024102;28;20387;-78
2023/10/14 00:37:55;;;;;;;0.10;0.10;;;;;;;21.85;37.96;97728.69;5024275;28;20049;-79
2023/10/14 00:40:22;;;;;;;0.10;0.10;;;;;;;21.77;38.10;97729.78;5026161;28;20107;-80
2023/10/14 00:42:50;;;;;;;0.10;0.10;;;;;;;21.88;38.64;97720.41;5034525;28;20428;-78
2023/10/14 00:45:20;;;;;;;0.10;0.10;;;;;;;21.90;38.83;97718.56;5028205;28;20045;-79
2023/10/14 00:47:48;;;;;;;0.10;0.10;;;;;;;21.86;39.42;97716.88;5025622;28;20507;-78
2023/10/14 00:52:58;;;;;;;0.10;0.10;;;;;;;21.68;39.75;97712.91;5023473;28;20037;-78
2023/10/14 00:55:26;;;;;;;0.10;0.10;;;;;;;21.63;39.72;97713.03;5026072;28;20087;-79
2023/10/14 00:57:55;;;;;;;0.10;0.10;;;;;;;21.55;40.04;97714.22;5023652;28;20064;-79
2023/10/14 01:00:35;;;;;;;0.10;0.10;;;;;;;21.46;39.84;97710.88;5024573;28;20034;-77
2023/10/14 01:03:09;;;;;;;0.10;0.10;;;;;;;21.27;40.61;97706.88;5031046;23;20032;-78
2023/10/14 01:05:39;;;;;;;0.10;0.10;;;;;;;21.57;41.93;97699.69;5053985;28;20272;-79
2023/10/14 01:08:11;;;;;;;0.10;0.10;;;;;;;21.63;42.34;97712.16;5037868;28;20482;-80
2023/10/14 01:10:38;;;;;;;0.10;0.10;;;;;;;21.59;42.60;97703.22;5041843;28;20066;-79
2023/10/14 01:13:13;;;;;;;0.10;0.10;;;;;;;21.58;42.73;97706.88;5044125;28;20120;-80
2023/10/14 01:15:43;;;;;;;0.10;0.10;;;;;;;21.47;43.30;97704.50;5054562;28;20132;-81
2023/10/14 01:18:11;;;;;;;0.10;0.10;;;;;;;21.27;43.71;97715.00;5043509;28;20043;-81
2023/10/14 01:20:39;;;;;;;0.10;0.10;;;;;;;21.18;44.27;97702.63;5039332;28;20389;-81
2023/10/14 01:23:12;;;;;;;0.10;0.10;;;;;;;21.12;44.57;97702.78;5042666;28;20495;-80
2023/10/14 01:25:47;;;;;;;0.10;0.10;;;;;;;21.11;44.97;97701.03;5036699;28;20033;-80
2023/10/14 01:28:21;;;;;;;0.10;0.10;;;;;;;21.17;44.93;97687.28;5042905;28;20461;-81
2023/10/14 01:31:34;;;;;;;0.10;0.10;;;;;;;21.21;45.24;97688.97;5041293;28;20485;-80
2023/10/14 01:34:07;;;;;;;0.10;0.10;;;;;;;21.26;46.05;97689.72;5034543;28;20038;-79
2023/10/14 01:36:37;;;;;;;0.10;0.10;;;;;;;21.16;46.00;97699.06;5022847;28;20091;-78
2023/10/14 01:39:09;;;;;;;0.10;0.10;;;;;;;21.30;48.19;97684.19;5026847;28;20127;-79
2023/10/14 01:41:35;;;;;;;0.10;0.10;;;;;;;21.25;49.84;97703.34;5035247;28;20052;-79
2023/10/14 01:44:05;;;;;;;0.10;0.10;;;;;;;21.19;50.47;97719.81;5036419;28;20041;-80
2023/10/14 01:46:34;;;;;;;0.10;0.10;;;;;;;21.11;51.02;97725.44;5040204;28;20040;-79
2023/10/14 01:49:10;;;;;;;0.10;0.10;;;;;;;21.14;51.27;97716.34;5031802;28;20379;-79
2023/10/14 01:51:36;;;;;;;0.10;0.10;;;;;;;20.87;52.30;97718.91;5050364;28;20388;-79
2023/10/14 01:54:03;;;;;;;0.10;0.10;;;;;;;20.90;52.40;97712.50;5055524;28;20383;-81
2023/10/14 01:56:31;;;;;;;0.10;0.10;;;;;;;20.79;52.79;97725.47;5027971;28;20033;-79
2023/10/14 01:58:59;;;;;;;0.10;0.10;;;;;;;20.74;53.18;97712.03;5036133;28;20052;-79
2023/10/14 02:01:27;;;;;;;0.10;0.10;;;;;;;20.77;53.44;97711.97;5031459;28;20090;-80
2023/10/14 02:03:54;;;;;;;0.10;0.10;;;;;;;20.62;53.85;97706.97;5032791;28;20033;-81
2023/10/14 02:06:32;;;;;;;0.10;0.10;;;;;;;20.54;54.44;97719.81;5035181;28;20033;-81
2023/10/14 02:09:04;;;;;;;0.10;0.10;;;;;;;20.42;54.72;97716.50;5024243;28;20034;-79
2023/10/14 02:11:33;;;;;;;0.10;0.10;;;;;;;20.53;54.48;97727.06;5050480;28;20049;-79
2023/10/14 02:14:03;;;;;;;0.10;0.10;;;;;;;20.65;54.44;97713.19;5021765;28;20029;-80
2023/10/14 02:16:35;;;;;;;0.20;0.20;;;;;;;20.52;54.60;97722.59;5037033;28;20037;-79
2023/10/14 02:19:17;;;;;;;0.10;0.10;;;;;;;20.44;55.24;97716.44;5046531;28;20037;-80
2023/10/14 02:21:43;;;;;;;0.10;0.10;;;;;;;20.34;55.67;97721.22;5029885;28;20045;-80
2023/10/14 02:24:10;;;;;;;0.10;0.10;;;;;;;20.35;55.69;97705.84;5035333;28;20083;-80
2023/10/14 02:26:38;;;;;;;0.20;0.20;;;;;;;20.26;55.90;97706.97;5043557;28;20467;-79
2023/10/14 02:29:10;;;;;;;0.10;0.10;;;;;;;20.24;56.05;97701.59;5026904;28;20079;-81
2023/10/14 02:31:36;;;;;;;0.10;0.10;;;;;;;20.15;56.47;97699.13;5034897;28;20041;-80
2023/10/14 02:34:06;;;;;;;0.10;0.10;;;;;;;20.06;57.17;97715.59;5048489;28;20056;-80
2023/10/14 02:36:35;;;;;;;0.10;0.10;;;;;;;20.06;57.12;97712.88;5030712;28;20069;-81
2023/10/14 02:39:16;;;;;;;0.10;0.10;;;;;;;20.12;56.96;97709.13;5029600;28;20067;-80
2023/10/14 02:41:58;;;;;;;0.20;0.20;;;;;;;20.14;56.83;97694.63;5045259;28;20123;-79
2023/10/14 02:44:30;;;;;;;0.10;0.10;;;;;;;20.10;56.91;97692.94;5039752;28;20128;-80
2023/10/14 02:47:03;;;;;;;0.10;0.10;;;;;;;20.08;57.16;97692.09;5029446;28;20041;-80
2023/10/14 02:49:35;;;;;;;0.10;0.10;;;;;;;20.19;56.58;97692.69;5028028;28;20037;-79
2023/10/14 02:52:08;;;;;;;0.20;0.20;;;;;;;20.27;56.63;97694.34;5026627;28;20175;-77
2023/10/14 02:54:34;;;;;;;0.10;0.10;;;;;;;20.16;56.93;97679.22;5033259;28;20033;-79
2023/10/14 02:57:00;;;;;;;0.20;0.20;;;;;;;20.17;56.88;97670.19;5034326;28;20045;-79
2023/10/14 03:02:17;;;;;;;0.10;0.10;;;;;;;20.20;57.01;97672.81;5046565;28;20113;-78
2023/10/14 03:07:33;;;;;;;0.10;0.10;;;;;;;20.09;57.31;97685.75;5034122;28;20077;-80
2023/10/14 03:12:40;;;;;;;0.10;0.10;;;;;;;20.24;56.64;97690.75;5027280;28;20069;-80
2023/10/14 03:15:19;;;;;;;0.10;0.10;;;;;;;20.36;56.18;97691.34;5031600;28;20049;-79
2023/10/14 03:17:53;;;;;;;0.20;0.20;;;;;;;20.25;56.61;97692.53;5029436;28;20181;-79
2023/10/14 03:22:54;;;;;;;0.10;0.10;;;;;;;20.27;56.50;97675.38;5042675;28;20399;-79
2023/10/14 03:25:23;;;;;;;0.10;0.10;;;;;;;20.31;56.15;97688.75;5031749;28;20505;-79
2023/10/14 03:27:59;;;;;;;0.10;0.10;;;;;;;20.36;56.37;97672.38;5028253;28;20041;-79
2023/10/14 03:30:27;;;;;;;0.10;0.10;;;;;;;20.30;56.27;97676.16;5031089;28;20041;-80
2023/10/14 03:32:54;;;;;;;0.10;0.10;;;;;;;20.24;56.39;97666.38;5028990;28;20033;-79
2023/10/14 03:35:21;;;;;;;0.10;0.10;;;;;;;20.23;56.80;97670.03;5032266;28;20041;-80
2023/10/14 03:38:00;;;;;;;0.10;0.10;;;;;;;20.23;56.80;97661.91;5035569;28;20095;-80
2023/10/14 03:43:07;;;;;;;0.10;0.10;;;;;;;20.29;56.36;97655.44;5033315;28;20048;-79
2023/10/14 03:45:33;;;;;;;0.20;0.20;;;;;;;20.23;56.32;97656.47;5025580;28;20029;-80
2023/10/14 03:48:00;;;;;;;0.10;0.10;;;;;;;20.28;56.43;97669.91;5023355;28;20110;-81
2023/10/14 03:50:26;;;;;;;0.20;0.20;;;;;;;20.29;55.99;97641.88;5028587;28;20552;-81
2023/10/14 03:52:55;;;;;;;0.10;0.10;;;;;;;20.34;55.83;97647.19;5027606;28;20471;-80
2023/10/14 03:55:26;;;;;;;0.10;0.10;;;;;;;20.30;55.85;97642.75;5031102;28;20041;-79
2023/10/14 03:57:58;;;;;;;0.10;0.10;;;;;;;20.42;55.48;97645.16;5030931;28;20063;-79
2023/10/14 04:00:30;;;;;;;0.10;0.10;;;;;;;20.41;55.69;97643.34;5036635;28;20041;-79
2023/10/14 04:02:57;;;;;;;0.15;0.15;;;;;;;20.48;55.28;97640.47;5026955;28;20073;-79
2023/10/14 04:05:27;;;;;;;0.10;0.10;;;;;;;20.33;55.85;97630.03;5026655;28;20059;-80
2023/10/14 04:07:54;;;;;;;0.10;0.10;;;;;;;20.36;56.03;97626.34;5033750;28;20045;-81
2023/10/14 04:10:23;;;;;;;0.10;0.10;;;;;;;20.42;56.34;97620.78;5028907;28;20100;-81
2023/10/14 04:12:54;;;;;;;0.10;0.10;;;;;;;20.41;55.81;97621.69;5037641;28;20033;-82
2023/10/14 04:15:44;;;;;;;0.10;0.10;;;;;;;20.37;56.05;97626.31;5044664;28;20069;-79
2023/10/14 04:18:12;;;;;;;0.10;0.10;;;;;;;20.39;55.95;97618.13;5034963;28;20514;-80
2023/10/14 04:20:38;;;;;;;0.10;0.10;;;;;;;20.45;55.54;97624.25;5033581;28;20043;-80
2023/10/14 04:23:17;;;;;;;0.20;0.20;;;;;;;20.46;55.55;97645.03;5032947;28;20399;-81
2023/10/14 04:25:43;;;;;;;0.10;0.10;;;;;;;19.86;59.97;97663.78;5030700;28;20037;-79
2023/10/14 04:28:17;;;;;;;0.10;0.10;;;;;;;18.87;64.16;97694.81;5043543;28;20513;-81
2023/10/14 04:30:44;;;;;;;0.20;0.20;;;;;;;17.85;72.27;97751.56;5029136;28;20037;-82
2023/10/14 04:35:57;;;;;;;0.20;0.20;;;;;;;16.05;79.63;97759.00;5028414;28;20093;-80
2023/10/14 04:38:28;;;;;;;0.20;0.20;;;;;;;15.97;80.01;97751.03;5030730;28;20029;-85
2023/10/14 04:40:54;;;;;;;0.20;0.20;;;;;;;15.83;79.89;97751.13;5034057;28;20476;-82
2023/10/14 04:43:49;;;;;;;0.30;0.30;;;;;;;15.75;80.38;97742.19;5044986;28;20051;-83
2023/10/14 04:46:14;;;;;;;0.30;0.30;;;;;;;15.61;80.90;97765.56;5033495;28;20037;-82
2023/10/14 04:48:39;;;;;;;0.30;0.30;;;;;;;15.44;82.36;97754.94;5028310;28;20578;-83
2023/10/14 04:51:06;;;;;;;0.25;0.25;;;;;;;15.34;82.92;97774.72;5034680;28;20037;-83
2023/10/14 04:53:32;;;;;;;0.30;0.30;;;;;;;15.31;83.59;97763.97;5026450;28;20041;-82
2023/10/14 04:56:03;;;;;;;0.22;0.22;;;;;;;15.22;84.78;97778.34;5030689;28;20132;-83
2023/10/14 04:58:32;;;;;;;0.30;0.30;;;;;;;15.19;85.03;97775.69;5028533;28;20041;-82
2023/10/14 05:01:03;;;;;;;0.30;0.30;;;;;;;15.10;85.64;97784.66;5037026;28;20064;-82
2023/10/14 05:03:29;;;;;;;0.30;0.30;;;;;;;15.09;85.47;97777.50;5031611;28;20041;-81
2023/10/14 05:06:14;;;;;;;0.30;0.30;;;;;;;14.96;86.29;97781.13;5029100;28;20044;-81
2023/10/14 05:08:44;;;;;;;0.30;0.30;;;;;;;14.86;86.63;97777.59;5028207;28;20608;-81
2023/10/14 05:11:18;;;;;;;0.30;0.30;;;;;;;14.73;86.95;97780.31;5032178;28;20051;-81
2023/10/14 05:13:56;;;;;;;0.30;0.30;;;;;;;14.87;86.81;97787.44;5046728;28;20462;-80
2023/10/14 05:16:21;;;;;;;0.30;0.30;;;;;;;14.83;86.62;97790.13;5031441;28;20037;-84
2023/10/14 05:19:01;;;;;;;0.30;0.30;;;;;;;14.78;86.77;97791.94;5028250;28;20111;-81
2023/10/14 05:21:36;;;;;;;0.30;0.30;;;;;;;14.83;87.12;97782.06;5026318;28;20061;-80
2023/10/14 05:24:09;;;;;;;0.30;0.30;;;;;;;14.84;86.77;97782.06;5029864;28;20088;-79
2023/10/14 05:26:45;;;;;;;0.30;0.30;;;;;;;14.91;86.77;97788.31;5018876;28;20041;-85
2023/10/14 05:29:19;;;;;;;0.30;0.30;;;;;;;15.02;85.90;97796.34;5033872;28;20091;-80
2023/10/14 05:34:52;;;;;;;0.30;0.30;;;;;;;14.95;86.62;97798.16;5017000;28;20494;-83
2023/10/14 05:37:17;;;;;;;0.25;0.25;;;;;;;14.92;86.70;97799.94;5027447;28;20121;-82
2023/10/14 05:39:43;;;;;;;0.20;0.20;;;;;;;14.98;86.17;97802.59;5027372;28;20243;-81
2023/10/14 05:42:21;;;;;;;0.30;0.30;;;;;;;15.15;85.62;97808.84;5038594;28;20439;-81
2023/10/14 05:44:47;;;;;;;0.30;0.30;;;;;;;15.03;85.76;97807.06;5043519;28;20434;-82
2023/10/14 05:47:18;;;;;;;0.30;0.30;;;;;;;15.09;85.16;97807.06;5030307;28;20061;-79
2023/10/14 05:49:44;;;;;;;0.20;0.20;;;;;;;15.31;84.21;97815.03;5025677;28;20059;-79
2023/10/14 05:52:13;;;;;;;0.30;0.30;;;;;;;15.30;83.79;97819.50;5032511;28;20508;-80
2023/10/14 05:54:41;;;;;;;0.30;0.30;;;;;;;15.25;84.07;97833.88;5025982;28;20124;-79
2023/10/14 05:57:10;;;;;;;0.28;0.28;;;;;;;15.31;83.73;97832.03;5024881;28;20573;-79
2023/10/14 05:59:36;;;;;;;0.25;0.25;;;;;;;15.35;83.22;97833.81;5022512;28;20435;-80
2023/10/14 06:02:12;;;;;;;0.22;0.22;;;;;;;15.41;82.41;97838.28;5023277;28;20111;-82
2023/10/14 06:04:41;;;;;;;0.20;0.20;;;;;;;15.57;81.52;97840.00;5026427;28;20038;-83
2023/10/14 06:07:20;;;;;;;0.25;0.25;;;;;;;15.57;81.21;97842.69;5032150;28;20045;-81
2023/10/14 06:09:47;;;;;;;0.30;0.30;;;;;;;15.54;81.23;97845.38;5035107;28;20060;-79
2023/10/14 06:12:13;;;;;;;0.30;0.30;;;;;;;15.51;81.51;97844.50;5032261;28;20072;-81
2023/10/14 06:14:39;;;;;;;0.28;0.28;;;;;;;15.42;82.11;97840.06;5035450;28;20071;-80
2023/10/14 06:17:05;;;;;;;0.22;0.22;;;;;;;15.45;81.55;97841.84;5029629;28;20068;-80
2023/10/14 06:19:31;;;;;;;0.20;0.20;;;;;;;15.50;81.76;97848.09;5037678;28;20479;-81
2023/10/14 06:21:56;;;;;;;0.20;0.20;;;;;;;15.55;81.38;97857.03;5031128;28;20049;-80
2023/10/14 06:24:24;;;;;;;0.25;0.25;;;;;;;15.57;81.44;97863.28;5030668;28;20025;-80
2023/10/14 06:26:58;;;;;;;0.30;0.30;;;;;;;15.64;81.18;97863.28;5034473;28;20033;-81
2023/10/14 06:29:25;;;;;;;0.20;0.20;;;;;;;15.70;80.62;97872.22;5031423;28;20053;-81
2023/10/14 06:31:51;;;;;;;0.20;0.20;;;;;;;15.82;80.20;97862.31;5029627;28;20091;-83
2023/10/14 06:34:17;;;;;;;0.20;0.20;;;;;;;16.11;78.38;97853.16;5033227;28;20484;-80
2023/10/14 06:36:47;;;;;;;0.20;0.20;;;;;;;16.25;76.84;97851.28;5032068;28;20398;-80
2023/10/14 06:39:14;;;;;;;0.20;0.20;;;;;;;16.12;78.02;97863.91;5012158;28;20495;-81
2023/10/14 06:41:43;;;;;;;0.30;0.30;;;;;;;16.09;77.82;97863.91;5050705;28;20033;-82
2023/10/14 06:44:15;;;;;;;0.20;0.20;;;;;;;16.09;78.04;97863.03;5034224;28;20128;-80
2023/10/14 06:46:44;;;;;;;0.20;0.20;;;;;;;16.19;77.65;97870.13;5030929;28;20057;-80
2023/10/14 06:49:13;;;;;;;0.20;0.20;;;;;;;16.12;77.91;97879.16;5051170;28;20045;-80
2023/10/14 06:51:42;;;;;;;0.20;0.20;;;;;;;16.22;77.59;97872.81;5038715;28;20091;-80
2023/10/14 06:54:14;;;;;;;0.25;0.25;;;;;;;16.34;76.29;97872.75;5023280;28;20045;-80
2023/10/14 06:56:44;;;;;;;0.20;0.20;;;;;;;16.45;76.02;97879.84;5030661;28;20037;-81
2023/10/14 06:59:13;;;;;;;0.20;0.20;;;;;;;16.45;76.03;97885.22;5047507;28;20488;-79
2023/10/14 07:01:38;;;;;;;0.20;0.20;;;;;;;16.53;76.07;97891.41;5038754;28;20112;-80
2023/10/14 07:04:04;;;;;;;0.20;0.20;;;;;;;16.63;74.59;97896.75;5026910;28;20040;-79
2023/10/14 07:06:30;;;;;;;0.20;0.20;;;;;;;16.66;74.36;97894.00;5021619;28;20033;-81
2023/10/14 07:08:55;;;;;;;0.20;0.20;;;;;;;16.74;73.53;97893.97;5029127;28;20037;-79
2023/10/14 07:11:21;;;;;;;0.20;0.20;;;;;;;16.83;73.14;97906.47;5002518;28;24912;-80
2023/10/14 07:13:47;;;;;;;0.20;0.20;;;;;;;16.92;72.66;97898.31;5030987;28;20096;-79
2023/10/14 07:16:13;;;;;;;0.30;0.30;;;;;;;17.04;72.26;97883.81;5020652;28;20055;-80
2023/10/14 07:18:39;;;;;;;0.20;0.20;;;;;;;17.24;71.38;97891.69;5035347;28;20044;-80
2023/10/14 07:21:12;;;;;;;0.22;0.22;;;;;;;17.37;70.80;97890.66;5026602;28;20041;-80
2023/10/14 07:23:38;;;;;;;0.20;0.20;;;;;;;17.38;71.22;97897.81;5026054;28;20103;-81
2023/10/14 07:26:09;;;;;;;0.20;0.20;;;;;;;17.48;70.33;97906.69;5030487;28;20071;-80
2023/10/14 07:28:35;;;;;;;0.20;0.20;;;;;;;17.54;70.39;97902.13;5028154;28;20037;-82
2023/10/14 07:31:01;;;;;;;0.20;0.20;;;;;;;17.70;69.69;97909.13;5041604;28;20449;-81
2023/10/14 07:33:27;;;;;;;0.20;0.20;;;;;;;17.66;70.57;97915.47;5026205;28;20038;-86
2023/10/14 07:35:53;;;;;;;0.20;0.20;;;;;;;17.86;70.11;97911.66;5021847;28;20052;-81
2023/10/14 07:38:20;;;;;;;0.20;0.20;;;;;;;17.99;69.42;97909.69;5028754;28;20466;-80
2023/10/14 07:40:46;;;;;;;0.20;0.20;;;;;;;18.10;69.24;97910.44;5024363;28;20037;-81
2023/10/14 07:43:11;;;;;;;0.20;0.20;;;;;;;18.14;68.14;97912.19;5031855;28;20040;-87
2023/10/14 07:45:43;;;;;;;0.20;0.20;;;;;;;18.27;68.77;97915.59;5031880;28;20060;-81
2023/10/14 07:48:11;;;;;;;0.20;0.20;;;;;;;18.52;67.65;97903.50;5025593;28;20033;-80
2023/10/14 07:50:39;;;;;;;0.20;0.20;;;;;;;18.54;67.69;97904.38;5029575;28;20144;-81
2023/10/14 07:53:10;;;;;;;0.30;0.30;;;;;;;20.07;61.97;97901.53;5024298;28;20037;-80
2023/10/14 07:55:39;;;;;;;0.20;0.20;;;;;;;21.21;59.55;97903.28;5038018;28;20116;-81
2023/10/14 07:58:08;;;;;;;0.20;0.20;;;;;;;21.55;58.14;97899.69;5025117;28;20037;-80
2023/10/14 08:00:48;;;;;;;0.20;0.20;;;;;;;21.38;58.27;97904.72;5016597;28;20113;-80
2023/10/14 08:03:20;;;;;;;0.10;0.10;;;;;;;20.90;60.11;97908.63;5047630;28;20048;-81
2023/10/14 08:05:54;;;;;;;0.10;0.10;;;;;;;20.66;59.33;97917.38;5035732;28;20033;-80
2023/10/14 08:08:22;;;;;;;0.10;0.10;;;;;;;20.79;59.29;97907.09;5038645;28;21182;-80
2023/10/14 08:10:49;;;;;;;0.20;0.20;;;;;;;20.96;59.36;97913.91;5027373;28;20068;-78
2023/10/14 08:13:22;;;;;;;0.10;0.10;;;;;;;21.46;57.04;97913.50;5010487;28;20037;-84
2023/10/14 08:15:51;;;;;;;0.10;0.10;;;;;;;20.96;59.78;97915.72;5029776;28;20040;-79
2023/10/14 08:18:25;;;;;;;0.10;0.10;;;;;;;20.26;60.85;97923.66;5035276;28;20052;-79
2023/10/14 08:20:54;;;;;;;0.10;0.10;;;;;;;19.98;61.37;97923.41;5023224;28;20091;-80
2023/10/14 08:23:23;;;;;;;0.10;0.10;;;;;;;19.66;61.97;97922.25;5041367;28;20579;-80
2023/10/14 08:25:54;;;;;;;0.10;0.10;;;;;;;19.38;63.26;97929.09;5013174;28;20111;-80
2023/10/14 08:28:23;;;;;;;0.10;0.10;;;;;;;19.17;64.39;97914.16;5023046;28;20099;-80
2023/10/14 08:30:50;;;;;;;0.10;0.10;;;;;;;18.92;65.35;97929.91;5032329;28;20037;-80
2023/10/14 08:33:20;;;;;;;0.20;0.20;;;;;;;18.82;65.72;97929.16;5023077;28;20041;-79
2023/10/14 08:35:50;;;;;;;0.10;0.10;;;;;;;18.77;65.98;97930.16;5017798;28;20164;-85
2023/10/14 08:38:23;;;;;;;0.20;0.20;;;;;;;18.90;65.64;97938.03;5029618;28;20042;-81
2023/10/14 08:40:52;;;;;;;0.20;0.20;;;;;;;18.70;67.00;97932.06;5026385;28;20033;-81
2023/10/14 08:43:26;;;;;;;0.20;0.20;;;;;;;18.73;66.85;97934.72;5031257;28;20148;-79
2023/10/14 08:45:53;;;;;;;0.10;0.10;;;;;;;19.03;65.90;97927.91;5031431;28;20040;-81
2023/10/14 08:48:24;;;;;;;0.20;0.20;;;;;;;18.89;65.74;97925.44;5031638;28;20147;-82
2023/10/14 08:50:52;;;;;;;0.20;0.20;;;;;;;19.01;66.25;97931.56;5033511;28;20029;-82
2023/10/14 08:53:22;;;;;;;0.20;0.20;;;;;;;18.99;65.97;97930.69;5021373;28;20045;-83
2023/10/14 08:55:48;;;;;;;0.20;0.20;;;;;;;18.93;66.58;97939.81;5024321;28;20180;-83
2023/10/14 08:58:14;;;;;;;0.20;0.20;;;;;;;18.68;67.33;97937.53;5045137;28;20037;-83
2023/10/14 09:00:43;;;;;;;0.20;0.20;;;;;;;18.38;68.95;97946.03;5026797;28;20045;-81
2023/10/14 09:03:09;;;;;;;0.20;0.20;;;;;;;17.96;70.90;97956.50;5029281;28;20048;-81
2023/10/14 09:05:44;;;;;;;0.20;0.20;;;;;;;17.33;75.09;97970.66;5021028;28;20372;-87
2023/10/14 09:08:19;;;;;;;0.20;0.20;;;;;;;16.71;78.41;97979.25;5043194;28;20073;-82
2023/10/14 09:10:45;;;;;;;0.20;0.20;;;;;;;16.47;80.40;97986.59;5026565;28;20074;-81
2023/10/14 09:13:12;;;;;;;0.20;0.20;;;;;;;16.32;81.04;97992.09;5030788;28;20116;-80
2023/10/14 09:15:39;;;;;;;;;;;;;;;16.06;80.83;98011.06;5034848;28;20468;-81
2023/10/14 09:18:19;;;;;;;0.30;0.30;;;;;;;16.04;81.98;97991.31;5034695;28;19925;-82
2023/10/14 09:20:53;;;;;;;0.30;0.30;;;;;;;15.88;83.09;97996.78;5022121;28;20037;-81
2023/10/14 09:23:27;;;;;;;0.30;0.30;;;;;;;15.56;82.91;98014.75;5023970;28;20037;-82
2023/10/14 09:25:58;;;;;;;0.30;0.30;;;;;;;15.36;84.54;98022.88;5019880;28;20037;-82
2023/10/14 09:28:25;;;;;;;0.30;0.30;;;;;;;15.22;84.28;98012.13;5025020;28;20041;-81
2023/10/14 09:30:52;;;;;;;0.30;0.30;;;;;;;15.27;83.43;98021.06;5027259;28;20034;-83
2023/10/14 09:33:19;;;;;;;;;;;;;;;15.33;83.97;98044.34;5044693;28;20585;-82
2023/10/14 09:35:50;;;;;;;0.30;0.30;;;;;;;15.33;84.15;98044.34;5024325;28;20628;-84
2023/10/14 09:38:22;;;;;;;0.30;0.30;;;;;;;15.34;83.37;98041.69;5049880;28;20116;-84
2023/10/14 09:40:57;;;;;;;0.30;0.30;;;;;;;15.27;83.47;98047.06;5032551;28;20132;-83
2023/10/14 09:43:24;;;;;;;0.30;0.30;;;;;;;15.16;83.02;98062.31;5039401;28;20041;-81
2023/10/14 09:45:55;;;;;;;0.30;0.30;;;;;;;15.18;83.12;98066.75;5047077;28;20090;-82
2023/10/14 09:48:25;;;;;;;0.30;0.30;;;;;;;15.29;83.78;98073.06;5025000;28;20057;-82
2023/10/14 09:50:54;;;;;;;0.30;0.30;;;;;;;15.33;83.61;98071.22;5029778;28;20041;-83
2023/10/14 09:53:26;;;;;;;0.30;0.30;;;;;;;15.34;83.84;98062.31;5038485;28;20482;-87
2023/10/14 09:55:53;;;;;;;0.22;0.22;;;;;;;15.32;83.14;98074.81;5025246;28;20491;-85
2023/10/14 09:58:22;;;;;;;;;;;;;;;15.34;83.92;98065.88;5037533;28;20048;-84
2023/10/14 10:00:49;;;;;;;0.30;0.30;;;;;;;15.42;83.87;98064.97;5026964;28;20400;-82
2023/10/14 10:03:15;;;;;;;0.30;0.30;;;;;;;15.74;83.29;98059.59;5039097;28;20139;-82
2023/10/14 10:05:52;;;;;;;0.32;0.32;;;;;;;16.08;81.96;98055.00;5021502;28;20629;-82
2023/10/14 10:08:44;;;;;;;;;;;;;;;16.08;81.40;98063.06;5049891;28;20092;-85
2023/10/14 10:11:11;;;;;;;0.30;0.30;;;;;;;15.83;82.19;98068.53;5027892;28;20319;-82
2023/10/14 10:13:39;;;;;;;0.30;0.30;;;;;;;15.84;82.55;98069.41;5031758;28;20092;-82
2023/10/14 10:16:05;;;;;;;0.30;0.30;;;;;;;15.70;82.31;98064.06;5033365;28;20057;-81
2023/10/14 10:18:51;;;;;;;0.38;0.38;;;;;;;16.08;81.28;98055.88;5031126;28;20430;-81
2023/10/14 10:21:23;;;;;;;0.30;0.30;;;;;;;16.70;79.21;98058.28;5031987;28;20399;-80
2023/10/14 10:23:56;;;;;;;0.30;0.30;;;;;;;17.08;77.62;98053.56;5022403;28;20080;-80
2023/10/14 10:26:23;;;;;;;0.30;0.30;;;;;;;16.68;78.43;98063.69;5035960;28;20083;-82
2023/10/14 10:28:48;;;;;;;;;;;;;;;16.49;79.47;98056.63;5027835;28;20060;-80
2023/10/14 10:31:20;;;;;;;0.30;0.30;;;;;;;16.98;78.07;98056.34;5019730;28;19914;-79
2023/10/14 10:34:02;;;;;;;0.30;0.30;;;;;;;16.77;77.69;98041.19;5032656;28;20045;-79
2023/10/14 10:36:31;;;;;;;0.30;0.30;;;;;;;16.91;78.47;98044.69;5028978;28;20044;-79
2023/10/14 10:39:15;;;;;;;0.30;0.30;;;;;;;16.98;78.15;98032.09;5052298;28;20034;-78
2023/10/14 10:41:41;;;;;;;0.25;0.25;;;;;;;17.19;77.04;98038.19;5010403;28;20045;-78
2023/10/14 10:44:09;;;;;;;0.30;0.30;;;;;;;17.21;75.63;98038.19;5030375;28;20049;-77
2023/10/14 10:46:40;;;;;;;0.30;0.30;;;;;;;17.17;74.69;98040.03;5027898;28;20048;-79
2023/10/14 10:49:07;;;;;;;0.30;0.30;;;;;;;17.01;76.04;98035.66;5043399;28;20052;-78
2023/10/14 10:51:34;;;;;;;0.30;0.30;;;;;;;17.02;76.45;98037.44;5027359;28;20060;-80
2023/10/14 10:54:01;;;;;;;0.30;0.30;;;;;;;17.02;76.61;98033.88;5031748;28;20049;-83
2023/10/14 10:56:31;;;;;;;0.25;0.25;;;;;;;16.65;78.00;98040.34;5030510;28;20048;-80
2023/10/14 10:58:57;;;;;;;0.28;0.28;;;;;;;16.45;79.10;98041.38;5029730;28;20049;-78
2023/10/14 11:01:23;;;;;;;0.30;0.30;;;;;;;16.24;79.48;98053.13;5028231;28;20029;-78
2023/10/14 11:03:49;;;;;;;0.30;0.30;;;;;;;16.03;79.18;98041.56;5030972;28;20049;-80
2023/10/14 11:06:17;;;;;;;0.30;0.30;;;;;;;16.03;81.41;98038.88;5034754;28;20144;-79
2023/10/14 11:08:46;;;;;;;0.30;0.30;;;;;;;16.33;81.90;98039.63;5029521;28;20045;-79
2023/10/14 11:11:13;;;;;;;0.30;0.30;;;;;;;16.62;80.32;98050.25;5034874;28;20083;-77
2023/10/14 11:13:39;;;;;;;0.30;0.30;;;;;;;16.54;79.38;98039.53;5022455;28;20033;-78
2023/10/14 11:16:14;;;;;;;0.30;0.30;;;;;;;16.38;78.62;98030.66;5030463;28;20825;-79
2023/10/14 11:18:49;;;;;;;0.30;0.30;;;;;;;16.04;80.03;98040.66;5038985;28;20083;-80
2023/10/14 11:21:16;;;;;;;0.20;0.20;;;;;;;16.15;81.05;98048.69;5031075;28;20041;-79
2023/10/14 11:23:43;;;;;;;0.30;0.30;;;;;;;15.87;81.09;98054.16;5024216;28;20041;-79
2023/10/14 11:26:16;;;;;;;0.30;0.30;;;;;;;15.74;81.26;98060.47;5028952;28;20048;-82
2023/10/14 11:28:45;;;;;;;0.30;0.30;;;;;;;15.42;81.58;98065.84;5045521;28;20541;-79
2023/10/14 11:31:14;;;;;;;0.30;0.30;;;;;;;15.27;83.02;98060.50;5032548;28;20037;-82
2023/10/14 11:33:39;;;;;;;0.30;0.30;;;;;;;15.07;83.23;98056.00;5024729;28;20511;-80
2023/10/14 11:36:05;;;;;;;0.30;0.30;;;;;;;15.11;82.98;98055.13;5025436;28;20487;-78
2023/10/14 11:38:32;;;;;;;0.30;0.30;;;;;;;14.86;82.44;98077.50;5033707;28;20047;-81
2023/10/14 11:40:58;;;;;;;0.30;0.30;;;;;;;14.74;83.39;98078.34;5022499;28;20104;-79
2023/10/14 11:43:24;;;;;;;0.32;0.32;;;;;;;14.65;84.13;98072.97;5029306;28;20045;-80
2023/10/14 11:45:52;;;;;;;0.30;0.30;;;;;;;14.52;82.60;98082.78;5021819;28;20065;-81
2023/10/14 11:48:22;;;;;;;0.30;0.30;;;;;;;14.54;82.86;98070.25;5035748;28;20515;-80
2023/10/14 11:50:50;;;;;;;0.30;0.30;;;;;;;14.55;83.65;98069.34;5034129;28;20095;-81
2023/10/14 11:53:22;;;;;;;0.30;0.30;;;;;;;14.59;82.33;98060.44;5030900;28;20045;-84
2023/10/14 11:55:48;;;;;;;0.30;0.30;;;;;;;14.76;81.45;98063.16;5032888;28;20090;-85
2023/10/14 11:58:13;;;;;;;0.30;0.30;;;;;;;14.80;79.69;98066.72;5038114;28;20060;-81
2023/10/14 12:00:41;;;;;;;0.30;0.30;;;;;;;14.69;81.31;98060.44;5032796;28;20040;-80
2023/10/14 12:03:07;;;;;;;0.40;0.40;;;;;;;14.75;81.44;98057.75;5031891;28;20053;-82
2023/10/14 12:05:39;;;;;;;0.30;0.30;;;;;;;14.94;80.82;98069.44;5017497;28;20095;-82
2023/10/14 12:08:08;;;;;;;0.30;0.30;;;;;;;14.61;81.55;98082.81;5017665;28;20568;-81